Time;durP1;ratioP1;P1;durP2;ratioP2;P2;SDS_P1;SDS_P2;PMS_P1;PMS_P2;Temp;Humidity;BMP_temperature;BMP_pressure;BME280_temperature;BME280_humidity;BME280_pressure;Samples;Min_cycle;Max_cycle;Signal;HPM_P1;HPM_P2
2021/01/13 00:01:46;;;;;;;19.40;12.80;;;2.00;99.90;;;;;;5004007;28;20276;-87
2021/01/13 00:04:12;;;;;;;21.93;13.93;;;2.20;99.90;;;;;;5010064;28;20195;-87
2021/01/13 00:06:37;;;;;;;23.90;12.80;;;2.20;99.90;;;;;;5006385;28;20220;-87
2021/01/13 00:09:04;;;;;;;21.90;13.00;;;2.20;99.90;;;;;;5008976;28;20437;-87
2021/01/13 00:11:30;;;;;;;26.27;13.43;;;2.30;99.90;;;;;;5006432;28;20296;-85
2021/01/13 00:13:56;;;;;;;15.93;12.13;;;2.50;99.90;;;;;;5006686;28;20476;-84
2021/01/13 00:16:22;;;;;;;20.43;13.57;;;2.40;99.90;;;;;;5008169;28;20185;-83
2021/01/13 00:18:49;;;;;;;18.40;12.60;;;2.50;99.90;;;;;;5006337;28;20509;-85
2021/01/13 00:21:16;;;;;;;19.20;11.90;;;2.40;99.90;;;;;;5006435;28;20342;-83
2021/01/13 00:23:45;;;;;;;17.07;11.67;;;2.40;99.90;;;;;;5007195;28;20461;-83
2021/01/13 00:26:21;;;;;;;21.90;13.80;;;2.50;99.90;;;;;;5008179;28;20494;-84
2021/01/13 00:28:47;;;;;;;17.17;11.43;;;2.40;99.90;;;;;;5003249;28;20550;-84
2021/01/13 00:31:13;;;;;;;18.87;12.93;;;2.40;99.90;;;;;;5007102;28;20501;-86
2021/01/13 00:33:40;;;;;;;18.17;11.93;;;2.40;99.90;;;;;;5001423;28;20464;-85
2021/01/13 00:36:08;;;;;;;23.80;14.63;;;2.40;99.90;;;;;;5013817;28;20485;-86
2021/01/13 00:38:34;;;;;;;19.10;13.23;;;2.40;99.90;;;;;;5003631;28;20460;-87
2021/01/13 00:41:00;;;;;;;24.77;14.60;;;2.40;99.90;;;;;;5005409;28;20450;-87
2021/01/13 00:43:25;;;;;;;21.83;14.00;;;2.40;99.90;;;;;;5000189;28;20268;-85
2021/01/13 00:45:51;;;;;;;23.73;14.07;;;2.40;99.90;;;;;;5004932;28;20445;-87
2021/01/13 00:48:17;;;;;;;24.47;12.87;;;2.40;99.90;;;;;;5006299;28;20209;-85
2021/01/13 00:50:42;;;;;;;19.40;13.17;;;2.40;99.90;;;;;;5000339;28;20280;-86
2021/01/13 00:53:08;;;;;;;23.33;14.50;;;2.40;99.90;;;;;;5006599;28;20249;-86
2021/01/13 00:55:34;;;;;;;23.17;13.93;;;2.50;99.90;;;;;;5003298;28;20181;-86
2021/01/13 00:57:59;;;;;;;21.27;13.80;;;2.50;99.90;;;;;;5005239;28;20217;-84
2021/01/13 01:00:25;;;;;;;20.80;13.57;;;2.50;99.90;;;;;;5002766;28;20610;-85
2021/01/13 01:02:51;;;;;;;23.43;14.50;;;2.50;99.90;;;;;;4991159;28;20221;-84
2021/01/13 01:05:16;;;;;;;21.57;12.83;;;2.40;99.90;;;;;;5003816;28;20508;-84
2021/01/13 01:07:43;;;;;;;23.77;13.83;;;2.30;99.90;;;;;;5003388;28;20185;-85
2021/01/13 01:10:19;;;;;;;19.00;14.10;;;2.30;99.90;;;;;;4989987;28;20213;-85
2021/01/13 01:12:45;;;;;;;18.07;12.40;;;2.30;99.90;;;;;;5015925;28;20448;-85
2021/01/13 01:15:11;;;;;;;21.17;13.07;;;2.30;99.90;;;;;;5004048;28;20444;-86
2021/01/13 01:17:37;;;;;;;15.50;10.77;;;2.20;99.90;;;;;;4999435;28;20991;-86
2021/01/13 01:20:04;;;;;;;23.67;14.93;;;2.00;99.90;;;;;;4998430;28;20428;-84
2021/01/13 01:22:29;;;;;;;28.67;16.37;;;1.90;99.90;;;;;;5000374;28;20279;-89
2021/01/13 01:24:55;;;;;;;22.07;13.60;;;1.90;99.90;;;;;;5000712;28;20432;-84
2021/01/13 01:27:21;;;;;;;24.10;13.37;;;1.80;99.90;;;;;;5004151;28;20182;-85
2021/01/13 01:29:50;;;;;;;25.93;14.87;;;1.70;99.90;;;;;;4984270;28;20197;-83
2021/01/13 01:32:15;;;;;;;21.23;13.87;;;1.70;99.90;;;;;;4996597;28;20183;-89
2021/01/13 01:34:41;;;;;;;25.10;13.37;;;1.60;99.90;;;;;;4999392;28;20447;-83
2021/01/13 01:37:10;;;;;;;22.40;13.87;;;1.60;99.90;;;;;;5001045;28;20592;-83
2021/01/13 01:39:36;;;;;;;22.80;14.73;;;1.60;99.90;;;;;;4995419;28;20558;-84
2021/01/13 01:42:01;;;;;;;24.00;13.80;;;1.50;99.90;;;;;;4999970;28;20917;-88
2021/01/13 01:44:27;;;;;;;18.47;12.73;;;1.50;99.90;;;;;;5003014;28;21273;-86
2021/01/13 01:47:03;;;;;;;20.10;11.60;;;1.50;99.90;;;;;;4998305;28;20195;-84
2021/01/13 01:49:29;;;;;;;27.10;14.30;;;1.50;99.90;;;;;;4985258;28;20541;-88
2021/01/13 01:52:11;;;;;;;20.90;12.27;;;1.50;99.90;;;;;;4995725;28;20436;-85
2021/01/13 01:54:43;;;;;;;21.17;12.97;;;1.50;99.90;;;;;;5012986;28;20440;-87
2021/01/13 01:57:16;;;;;;;22.00;13.30;;;1.60;99.90;;;;;;4998333;28;20451;-87
2021/01/13 01:59:54;;;;;;;22.13;12.67;;;1.60;99.90;;;;;;5004971;28;20467;-85
2021/01/13 02:02:23;;;;;;;20.97;11.87;;;1.70;99.90;;;;;;5004892;28;20498;-85
2021/01/13 02:04:53;;;;;;;38.27;14.37;;;1.60;99.90;;;;;;5003023;28;20512;-87
2021/01/13 02:07:30;;;;;;;24.63;14.63;;;1.60;99.90;;;;;;5003032;28;20762;-85
2021/01/13 02:09:57;;;;;;;24.17;14.30;;;1.60;99.90;;;;;;5001094;28;20438;-85
2021/01/13 02:12:34;;;;;;;27.10;14.50;;;1.60;99.90;;;;;;5003433;28;20443;-87
2021/01/13 02:15:02;;;;;;;19.83;11.67;;;1.60;99.90;;;;;;5002783;28;20451;-86
2021/01/13 02:17:33;;;;;;;27.60;14.03;;;1.50;99.90;;;;;;5002978;28;20515;-86
2021/01/13 02:20:15;;;;;;;23.93;13.03;;;1.40;99.90;;;;;;5022101;28;20940;-88
2021/01/13 02:23:04;;;;;;;27.20;14.90;;;1.40;99.90;;;;;;5002858;28;20536;-86
2021/01/13 02:25:51;;;;;;;25.53;14.53;;;1.40;99.90;;;;;;5002971;28;20443;-88
2021/01/13 02:28:24;;;;;;;22.50;14.10;;;1.30;99.90;;;;;;5004782;28;20475;-87
2021/01/13 02:31:10;;;;;;;25.67;14.10;;;1.30;99.90;;;;;;5009198;28;20554;-88
2021/01/13 02:33:41;;;;;;;25.50;13.27;;;1.30;99.90;;;;;;5004372;28;20454;-88
2021/01/13 02:36:15;;;;;;;20.53;12.60;;;1.20;99.90;;;;;;5007993;28;20430;-89
2021/01/13 02:38:41;;;;;;;25.03;14.47;;;1.20;99.90;;;;;;5007809;28;20468;-88
2021/01/13 02:41:13;;;;;;;26.87;15.07;;;1.20;99.90;;;;;;5008685;28;20458;-86
2021/01/13 02:44:01;;;;;;;28.90;15.17;;;1.20;99.90;;;;;;5007318;28;21030;-88
2021/01/13 02:46:54;;;;;;;25.13;13.03;;;1.20;99.90;;;;;;5022458;28;20517;-88
2021/01/13 02:49:39;;;;;;;29.30;16.03;;;1.10;99.90;;;;;;5006216;28;20449;-86
2021/01/13 02:52:19;;;;;;;22.50;14.90;;;1.00;99.90;;;;;;5002779;28;20521;-89
2021/01/13 02:54:54;;;;;;;25.10;13.30;;;1.00;99.90;;;;;;5002070;28;20505;-88
2021/01/13 02:57:26;;;;;;;27.00;14.83;;;1.00;99.90;;;;;;5001999;28;20431;-86
2021/01/13 02:59:56;;;;;;;28.63;14.93;;;1.00;99.90;;;;;;5003528;28;20487;-86
2021/01/13 03:02:36;;;;;;;26.10;15.40;;;1.00;99.90;;;;;;5020312;28;20424;-88
2021/01/13 03:05:05;;;;;;;29.63;16.00;;;1.00;99.90;;;;;;5002930;28;20447;-83
2021/01/13 03:07:38;;;;;;;27.73;15.43;;;1.00;99.90;;;;;;5016454;28;20428;-87
2021/01/13 03:10:19;;;;;;;25.23;15.27;;;1.00;99.90;;;;;;5001084;28;20808;-85
2021/01/13 03:12:48;;;;;;;30.50;15.40;;;1.00;99.90;;;;;;5018114;28;20461;-87
2021/01/13 03:15:17;;;;;;;27.23;14.70;;;1.00;99.90;;;;;;5002072;28;20443;-85
2021/01/13 03:18:03;;;;;;;30.60;16.33;;;1.00;99.90;;;;;;5000734;28;20529;-87
2021/01/13 03:20:49;;;;;;;25.10;14.17;;;1.10;99.90;;;;;;5014335;28;20973;-85
2021/01/13 03:23:27;;;;;;;29.67;14.50;;;1.00;99.90;;;;;;4999363;28;20593;-88
2021/01/13 03:25:57;;;;;;;23.73;14.83;;;1.10;99.90;;;;;;4998730;28;20521;-87
2021/01/13 03:28:24;;;;;;;25.57;15.30;;;1.10;99.90;;;;;;4999034;28;20442;-85
2021/01/13 03:30:52;;;;;;;28.37;15.00;;;1.10;99.90;;;;;;4997720;28;20512;-85
2021/01/13 03:33:24;;;;;;;27.63;15.93;;;1.10;99.90;;;;;;5000655;28;20448;-87
2021/01/13 03:36:00;;;;;;;28.43;14.07;;;1.20;99.90;;;;;;4999746;28;20543;-86
2021/01/13 03:38:30;;;;;;;23.50;14.17;;;1.20;99.90;;;;;;4997555;28;20524;-86
2021/01/13 03:41:03;;;;;;;26.77;15.37;;;1.20;99.90;;;;;;5000893;28;20804;-87
2021/01/13 03:43:35;;;;;;;23.30;14.20;;;1.20;99.90;;;;;;5000837;28;20482;-88
2021/01/13 03:46:12;;;;;;;25.50;14.03;;;1.20;99.90;;;;;;5016166;28;20797;-88
2021/01/13 03:48:53;;;;;;;25.37;14.20;;;1.20;99.90;;;;;;5004656;28;20458;-87
2021/01/13 03:51:25;;;;;;;20.13;12.80;;;1.10;99.90;;;;;;4991087;28;20466;-88
2021/01/13 03:53:59;;;;;;;26.77;15.60;;;1.10;99.90;;;;;;5003228;28;20455;-90
2021/01/13 03:56:27;;;;;;;22.00;14.20;;;1.00;99.90;;;;;;5004145;28;20439;-90
2021/01/13 03:58:57;;;;;;;22.80;12.27;;;1.00;99.90;;;;;;4997896;28;20568;-88
2021/01/13 04:01:34;;;;;;;23.47;11.77;;;1.10;99.90;;;;;;5007950;28;20424;-88
2021/01/13 04:04:14;;;;;;;20.10;11.83;;;1.10;99.90;;;;;;5005057;28;20470;-87
2021/01/13 04:06:44;;;;;;;19.77;12.17;;;1.10;99.90;;;;;;5006883;28;21033;-89
2021/01/13 04:09:16;;;;;;;22.43;13.03;;;1.10;99.90;;;;;;5002242;28;20949;-89
2021/01/13 04:11:48;;;;;;;27.00;14.60;;;1.10;99.90;;;;;;5001617;28;20422;-88
2021/01/13 04:14:18;;;;;;;24.30;12.57;;;1.10;99.90;;;;;;5002282;28;20471;-89
2021/01/13 04:16:45;;;;;;;27.83;13.20;;;1.20;99.90;;;;;;5001664;28;20963;-88
2021/01/13 04:19:11;;;;;;;29.00;13.27;;;1.20;99.90;;;;;;5003781;28;20482;-85
2021/01/13 04:21:37;;;;;;;64.30;13.07;;;1.20;99.90;;;;;;5001578;28;20963;-86
2021/01/13 04:24:03;;;;;;;24.63;13.93;;;1.20;99.90;;;;;;4997760;28;20475;-87
2021/01/13 04:26:30;;;;;;;25.17;13.00;;;1.20;99.90;;;;;;5007732;28;20188;-84
2021/01/13 04:28:56;;;;;;;25.43;12.77;;;1.30;99.90;;;;;;4997979;28;20443;-89
2021/01/13 04:31:24;;;;;;;26.43;13.40;;;1.20;99.90;;;;;;5006649;28;20447;-86
2021/01/13 04:33:49;;;;;;;26.77;13.50;;;1.20;99.90;;;;;;5017000;28;20459;-85
2021/01/13 04:36:17;;;;;;;20.73;10.73;;;1.30;99.90;;;;;;5004794;28;20443;-84
2021/01/13 04:38:44;;;;;;;23.93;11.70;;;1.20;99.90;;;;;;5002075;28;20208;-87
2021/01/13 04:41:14;;;;;;;22.80;11.80;;;1.30;99.90;;;;;;5000193;28;20960;-85
2021/01/13 04:43:56;;;;;;;21.27;11.60;;;1.30;99.90;;;;;;5014878;28;20448;-84
2021/01/13 04:46:30;;;;;;;21.03;12.27;;;1.20;99.90;;;;;;4995640;28;20717;-84
2021/01/13 04:49:08;;;;;;;17.17;10.87;;;1.20;99.90;;;;;;5015637;28;20435;-86
2021/01/13 04:51:42;;;;;;;19.17;10.43;;;1.10;99.90;;;;;;4997016;28;20432;-87
2021/01/13 04:54:13;;;;;;;21.80;12.20;;;1.10;99.90;;;;;;5001859;28;20475;-86
2021/01/13 04:56:45;;;;;;;16.97;10.00;;;1.00;99.90;;;;;;5000643;28;20883;-86
2021/01/13 04:59:30;;;;;;;20.87;9.60;;;0.90;99.90;;;;;;5000551;28;20461;-84
2021/01/13 05:02:04;;;;;;;20.97;11.00;;;1.00;99.90;;;;;;4995153;28;20474;-86
2021/01/13 05:05:05;;;;;;;19.10;10.97;;;1.00;99.90;;;;;;4994237;28;20470;-85
2021/01/13 05:07:41;;;;;;;15.40;10.27;;;1.00;99.90;;;;;;5004248;28;20423;-87
2021/01/13 05:10:16;;;;;;;23.43;11.60;;;1.00;99.90;;;;;;5005303;28;20430;-89
2021/01/13 05:12:56;;;;;;;29.60;11.20;;;1.00;99.90;;;;;;5004835;28;20454;-84
2021/01/13 05:15:29;;;;;;;17.70;9.83;;;0.90;99.90;;;;;;5005107;28;20452;-87
2021/01/13 05:18:14;;;;;;;16.87;10.30;;;0.90;99.90;;;;;;5006362;28;20427;-85
2021/01/13 05:20:40;;;;;;;28.47;12.97;;;0.90;99.90;;;;;;5002050;28;20473;-87
2021/01/13 05:23:11;;;;;;;21.13;11.00;;;0.80;99.90;;;;;;5011801;28;20830;-86
2021/01/13 05:25:51;;;;;;;20.00;10.83;;;0.80;99.90;;;;;;5002645;28;20471;-84
2021/01/13 05:28:21;;;;;;;34.17;10.67;;;0.80;99.90;;;;;;4994127;28;20454;-87
2021/01/13 05:30:58;;;;;;;14.90;9.40;;;0.70;99.90;;;;;;4994817;28;20506;-89
2021/01/13 05:33:32;;;;;;;21.23;9.70;;;0.70;99.90;;;;;;4998638;28;20467;-88
2021/01/13 05:36:03;;;;;;;16.60;9.43;;;0.70;99.90;;;;;;5018958;28;20813;-86
2021/01/13 05:38:38;;;;;;;17.27;9.10;;;0.70;99.90;;;;;;4988812;28;20477;-87
2021/01/13 05:41:10;;;;;;;14.17;9.00;;;0.70;99.90;;;;;;4998661;28;20434;-88
2021/01/13 05:43:44;;;;;;;18.40;10.73;;;0.70;99.90;;;;;;4999030;28;20450;-85
2021/01/13 05:46:14;;;;;;;16.53;9.17;;;0.70;99.90;;;;;;4997679;28;20443;-85
2021/01/13 05:48:41;;;;;;;23.40;10.27;;;0.60;99.90;;;;;;4995722;28;20473;-86
2021/01/13 05:51:08;;;;;;;20.20;10.50;;;0.60;99.90;;;;;;5002194;28;20437;-86
2021/01/13 05:53:34;;;;;;;16.47;9.07;;;0.60;99.90;;;;;;5002368;28;20513;-84
2021/01/13 05:56:02;;;;;;;22.90;10.33;;;0.50;99.90;;;;;;4986021;28;20447;-83
2021/01/13 05:58:29;;;;;;;22.13;11.00;;;0.50;99.90;;;;;;4986358;28;21006;-85
2021/01/13 06:00:57;;;;;;;21.20;9.50;;;0.50;99.90;;;;;;4995742;28;20435;-83
2021/01/13 06:03:32;;;;;;;11.67;7.87;;;0.50;99.90;;;;;;5011506;28;20458;-81
2021/01/13 06:06:00;;;;;;;13.17;8.10;;;0.40;99.90;;;;;;4997314;28;20464;-83
2021/01/13 06:08:32;;;;;;;20.00;10.10;;;0.40;99.90;;;;;;4995051;28;20431;-83
2021/01/13 06:11:02;;;;;;;17.10;8.17;;;0.50;99.90;;;;;;4997942;28;20437;-83
2021/01/13 06:13:33;;;;;;;14.60;9.10;;;0.50;99.90;;;;;;4995615;28;20882;-84
2021/01/13 06:16:04;;;;;;;19.47;8.63;;;0.50;99.90;;;;;;4985021;28;20431;-85
2021/01/13 06:18:32;;;;;;;14.27;8.30;;;0.40;99.90;;;;;;4993719;28;20459;-84
2021/01/13 06:21:06;;;;;;;16.77;10.37;;;0.40;99.90;;;;;;4999911;28;21094;-83
2021/01/13 06:23:40;;;;;;;12.80;7.90;;;0.40;99.90;;;;;;4995871;28;20458;-84
2021/01/13 06:26:06;;;;;;;13.10;8.70;;;0.40;99.90;;;;;;4997216;28;20437;-83
2021/01/13 06:28:51;;;;;;;17.10;9.63;;;0.40;99.90;;;;;;4998730;28;21532;-82
2021/01/13 06:31:22;;;;;;;15.20;8.50;;;0.30;99.90;;;;;;4996810;28;20443;-86
2021/01/13 06:34:25;;;;;;;21.53;11.07;;;0.30;99.90;;;;;;5008399;28;20476;-81
2021/01/13 06:37:12;;;;;;;18.57;7.40;;;0.30;99.90;;;;;;4998496;28;20559;-82
2021/01/13 06:39:40;;;;;;;12.63;8.03;;;0.30;99.90;;;;;;4997423;28;20476;-82
2021/01/13 06:42:05;;;;;;;15.03;8.67;;;0.30;99.90;;;;;;4994332;28;20439;-84
2021/01/13 06:44:51;;;;;;;14.23;8.20;;;0.30;99.90;;;;;;4998356;28;20442;-82
2021/01/13 06:47:16;;;;;;;12.13;8.20;;;0.20;99.90;;;;;;5006805;28;20185;-82
2021/01/13 06:49:48;;;;;;;14.20;10.67;;;0.20;99.90;;;;;;4994549;28;21183;-84
2021/01/13 06:52:31;;;;;;;11.83;8.07;;;0.20;99.90;;;;;;4994385;28;20202;-83
2021/01/13 06:54:58;;;;;;;17.57;9.30;;;0.20;99.90;;;;;;4998814;28;20787;-79
2021/01/13 06:57:30;;;;;;;12.33;6.73;;;0.20;99.90;;;;;;4998873;28;20428;-83
2021/01/13 06:59:57;;;;;;;13.63;7.73;;;0.20;99.90;;;;;;5012514;28;20461;-81
2021/01/13 07:02:30;;;;;;;20.07;8.63;;;0.20;99.90;;;;;;4985458;28;20423;-84
2021/01/13 07:04:56;;;;;;;20.10;9.07;;;0.20;99.90;;;;;;5004712;28;20429;-84
2021/01/13 07:07:21;;;;;;;16.07;9.17;;;0.20;99.90;;;;;;4988766;28;20954;-84
2021/01/13 07:09:51;;;;;;;15.53;6.97;;;0.20;99.90;;;;;;4976120;28;20194;-82
2021/01/13 07:12:21;;;;;;;16.03;9.43;;;0.30;99.90;;;;;;4986554;28;20278;-82
2021/01/13 07:14:54;;;;;;;17.50;8.17;;;0.20;99.90;;;;;;5000635;28;20925;-83
2021/01/13 07:17:22;;;;;;;19.83;9.50;;;0.20;99.90;;;;;;4994636;28;20442;-83
2021/01/13 07:19:51;;;;;;;12.90;8.17;;;0.30;99.90;;;;;;4984452;28;20476;-84
2021/01/13 07:22:18;;;;;;;18.20;9.60;;;0.40;99.90;;;;;;4992457;28;21455;-82
2021/01/13 07:24:45;;;;;;;15.40;8.93;;;0.40;99.90;;;;;;4984158;28;20518;-81
2021/01/13 07:27:13;;;;;;;17.60;8.07;;;0.50;99.90;;;;;;5001135;28;20429;-82
2021/01/13 07:29:39;;;;;;;15.53;7.30;;;0.60;99.90;;;;;;4980231;28;20494;-84
2021/01/13 07:32:07;;;;;;;14.77;9.77;;;0.70;99.90;;;;;;5001057;28;20439;-82
2021/01/13 07:34:43;;;;;;;15.90;9.37;;;0.70;99.90;;;;;;4983544;28;20447;-83
2021/01/13 07:37:20;;;;;;;16.30;8.40;;;0.80;99.90;;;;;;4999878;28;20437;-80
2021/01/13 07:40:06;;;;;;;10.17;5.77;;;0.90;99.90;;;;;;4990874;28;20462;-84
2021/01/13 07:42:40;;;;;;;21.37;8.10;;;1.00;99.90;;;;;;4999919;28;20568;-80
2021/01/13 07:45:11;;;;;;;13.67;8.30;;;1.00;99.90;;;;;;5000529;28;20466;-83
2021/01/13 07:48:08;;;;;;;16.50;8.07;;;1.00;99.90;;;;;;4985977;28;20803;-83
2021/01/13 07:50:40;;;;;;;14.87;8.07;;;1.00;99.90;;;;;;5003136;28;20443;-82
2021/01/13 07:53:21;;;;;;;19.77;8.80;;;1.10;99.90;;;;;;4983860;28;20479;-84
2021/01/13 07:55:59;;;;;;;17.97;9.10;;;1.10;99.90;;;;;;5002778;28;20434;-86
2021/01/13 07:58:27;;;;;;;17.57;8.57;;;1.10;99.90;;;;;;5000905;28;20458;-83
2021/01/13 08:01:12;;;;;;;17.43;6.30;;;1.10;99.90;;;;;;4998335;28;20453;-86
2021/01/13 08:04:05;;;;;;;15.23;9.70;;;1.10;99.90;;;;;;5004729;28;20451;-83
2021/01/13 08:06:45;;;;;;;13.00;6.20;;;1.10;99.90;;;;;;4997282;28;20871;-86
2021/01/13 08:09:21;;;;;;;14.40;8.53;;;1.10;99.90;;;;;;5002757;28;20439;-87
2021/01/13 08:11:55;;;;;;;14.03;8.67;;;1.10;99.90;;;;;;4997356;28;20479;-86
2021/01/13 08:14:40;;;;;;;12.90;7.40;;;1.00;99.90;;;;;;4997901;28;20480;-85
2021/01/13 08:17:20;;;;;;;18.00;9.33;;;1.00;99.90;;;;;;5002542;28;20470;-83
2021/01/13 08:20:05;;;;;;;10.90;6.70;;;1.00;99.90;;;;;;4997904;28;20463;-84
2021/01/13 08:22:34;;;;;;;18.33;7.80;;;1.00;99.90;;;;;;4995310;28;20451;-83
2021/01/13 08:25:27;;;;;;;14.83;8.70;;;1.10;99.90;;;;;;4998585;28;20425;-84
2021/01/13 08:27:57;;;;;;;16.60;8.03;;;1.20;99.90;;;;;;4997766;28;20490;-85
2021/01/13 08:30:28;;;;;;;10.80;6.77;;;1.20;99.90;;;;;;4998322;28;20546;-84
2021/01/13 08:32:56;;;;;;;11.60;7.80;;;1.20;99.90;;;;;;4993788;28;20534;-83
2021/01/13 08:35:36;;;;;;;13.03;7.67;;;1.30;99.90;;;;;;4994049;28;20518;-83
2021/01/13 08:38:10;;;;;;;9.40;5.87;;;1.30;99.90;;;;;;4983628;28;20821;-86
2021/01/13 08:40:37;;;;;;;28.40;9.50;;;1.40;99.90;;;;;;4998668;28;20977;-85
2021/01/13 08:43:13;;;;;;;12.07;7.47;;;1.50;99.90;;;;;;5003364;28;20454;-85
2021/01/13 08:45:49;;;;;;;16.37;8.27;;;1.50;99.90;;;;;;5000596;28;20466;-86
2021/01/13 08:48:38;;;;;;;19.17;7.50;;;1.60;99.90;;;;;;5002291;28;20474;-87
2021/01/13 08:51:15;;;;;;;13.97;8.30;;;1.70;99.90;;;;;;5005320;28;20962;-90
2021/01/13 08:53:47;;;;;;;16.47;6.80;;;1.80;99.90;;;;;;5005101;28;20486;-87
2021/01/13 08:56:16;;;;;;;10.13;7.17;;;1.90;99.90;;;;;;5002989;28;20949;-87
2021/01/13 08:58:55;;;;;;;12.20;7.60;;;1.90;99.90;;;;;;5001749;28;20470;-88
2021/01/13 09:01:35;;;;;;;14.90;7.00;;;1.90;99.90;;;;;;5005537;28;20854;-86
2021/01/13 09:04:15;;;;;;;16.80;7.97;;;1.90;99.90;;;;;;5001885;28;20509;-89
2021/01/13 09:07:00;;;;;;;14.47;7.90;;;2.00;99.90;;;;;;5000317;28;20440;-90
2021/01/13 09:10:11;;;;;;;14.23;7.90;;;2.00;99.90;;;;;;5012221;28;20468;-90
2021/01/13 09:15:37;;;;;;;10.63;7.00;;;2.00;99.90;;;;;;5039690;22;20489;-91
2021/01/13 09:18:51;;;;;;;12.57;7.17;;;2.10;99.90;;;;;;5000920;28;20457;-86
2021/01/13 09:27:55;;;;;;;9.03;7.00;;;2.10;99.90;;;;;;1359921;26;20494;-89
2021/01/13 10:00:30;;;;;;;15.90;6.70;;;2.70;99.90;;;;;;5008390;28;20491;-92
2021/01/13 10:03:44;;;;;;;;;;;;;;;;;;;;;
2021/01/13 10:12:36;;;;;;;9.43;6.57;;;3.20;99.90;;;;;;5129543;23;20496;-83
2021/01/13 10:32:26;;;;;;;10.60;5.83;;;3.70;99.90;;;;;;5302959;22;20809;-89
2021/01/13 10:35:42;;;;;;;8.13;6.60;;;3.70;99.90;;;;;;5005262;28;20520;-89
2021/01/13 10:42:22;;;;;;;;;;;;;;;;;;;;;
2021/01/13 10:48:28;;;;;;;8.50;5.27;;;3.80;99.90;;;;;;5678338;22;20483;-88
2021/01/13 10:54:34;;;;;;;8.77;5.70;;;3.90;99.90;;;;;;5004159;28;20511;-89
2021/01/13 10:57:17;;;;;;;11.57;5.17;;;4.00;99.90;;;;;;4984844;28;20563;-90
2021/01/13 11:09:09;;;;;;;8.33;5.40;;;4.30;99.90;;;;;;4962249;28;20488;-89
2021/01/13 11:12:04;;;;;;;6.90;5.70;;;4.50;99.90;;;;;;4957326;28;20426;-89
2021/01/13 11:14:46;;;;;;;12.20;4.87;;;4.70;99.90;;;;;;4943800;28;20456;-85
2021/01/13 11:17:29;;;;;;;9.50;6.10;;;4.80;99.90;;;;;;4976384;28;20883;-89
2021/01/13 11:19:56;;;;;;;6.53;4.27;;;4.70;99.90;;;;;;4958884;28;20555;-88
2021/01/13 11:30:55;;;;;;;;;;;;;;;;;;;;;
2021/01/13 11:34:12;;;;;;;6.60;4.57;;;5.00;99.90;;;;;;5010273;28;20467;-92
2021/01/13 11:36:47;;;;;;;8.23;4.37;;;4.90;99.90;;;;;;4981929;28;20527;-87
2021/01/13 11:43:30;;;;;;;4.80;3.27;;;5.00;99.90;;;;;;5005107;28;20467;-86
2021/01/13 12:08:10;;;;;;;7.47;5.77;;;5.10;99.90;;;;;;4219990;26;20949;-90
2021/01/13 12:10:59;;;;;;;9.50;5.70;;;5.20;99.90;;;;;;4964173;28;20468;-90
2021/01/13 12:13:45;;;;;;;5.73;4.27;;;5.40;99.90;;;;;;4987947;28;20448;-90
2021/01/13 12:16:30;;;;;;;5.77;3.53;;;5.60;99.90;;;;;;4965157;28;20444;-89
2021/01/13 12:18:59;;;;;;;8.73;5.03;;;5.70;99.90;;;;;;4965044;28;20576;-89
2021/01/13 12:21:31;;;;;;;7.63;5.23;;;5.70;99.90;;;;;;4982298;28;20437;-89
2021/01/13 12:24:16;;;;;;;7.33;4.70;;;5.70;99.90;;;;;;4985213;28;21135;-91
2021/01/13 12:26:47;;;;;;;7.17;4.43;;;5.50;99.90;;;;;;4974142;28;20513;-89
2021/01/13 12:29:34;;;;;;;8.33;4.33;;;5.30;99.90;;;;;;4985686;28;20678;-88
2021/01/13 12:32:06;;;;;;;10.70;5.07;;;5.00;99.90;;;;;;4940138;28;20797;-88
2021/01/13 12:34:40;;;;;;;14.10;4.70;;;5.00;99.90;;;;;;4966030;28;20464;-88
2021/01/13 12:37:14;;;;;;;7.37;3.80;;;5.10;99.90;;;;;;4971087;28;20429;-89
2021/01/13 12:39:43;;;;;;;11.73;4.10;;;5.10;99.90;;;;;;4968420;28;20481;-87
2021/01/13 12:42:19;;;;;;;10.20;4.40;;;5.10;99.90;;;;;;4969039;28;20632;-87
2021/01/13 12:45:22;;;;;;;3.70;3.00;;;5.00;99.90;;;;;;4966867;28;20491;-89
2021/01/13 12:47:59;;;;;;;7.60;3.80;;;5.00;99.90;;;;;;4908794;29;20982;-89
2021/01/13 12:50:58;;;;;;;5.63;4.63;;;5.00;99.90;;;;;;4909476;29;20436;-90
2021/01/13 12:53:42;;;;;;;5.73;4.93;;;5.00;99.90;;;;;;4928419;29;20601;-88
2021/01/13 12:56:21;;;;;;;9.63;4.10;;;5.00;99.90;;;;;;4943582;28;20502;-88
2021/01/13 12:59:01;;;;;;;4.87;4.00;;;5.00;99.90;;;;;;4974367;28;20551;-87
2021/01/13 13:02:05;;;;;;;6.43;3.53;;;5.00;99.90;;;;;;4976153;28;20428;-90
2021/01/13 13:04:31;;;;;;;4.53;2.93;;;5.00;99.90;;;;;;4941717;28;20448;-89
2021/01/13 13:06:57;;;;;;;6.00;3.63;;;4.90;99.90;;;;;;4973625;28;20440;-89
2021/01/13 13:09:36;;;;;;;3.67;3.23;;;4.90;99.90;;;;;;4953921;28;20437;-89
2021/01/13 13:12:08;;;;;;;8.03;3.90;;;4.80;99.90;;;;;;4989344;28;20464;-90
2021/01/13 13:14:40;;;;;;;3.20;2.57;;;4.70;99.90;;;;;;4958668;28;20461;-91
2021/01/13 13:17:31;;;;;;;4.10;3.70;;;4.80;99.90;;;;;;4972030;28;20445;-89
2021/01/13 13:20:03;;;;;;;4.23;3.10;;;4.80;99.90;;;;;;4984648;28;20568;-88
2021/01/13 13:25:54;;;;;;;5.37;3.10;;;4.80;99.90;;;;;;4994583;27;4036568;-89
2021/01/13 13:28:25;;;;;;;13.97;4.83;;;4.80;99.90;;;;;;5105335;28;20190;-87
2021/01/13 13:30:54;;;;;;;10.57;3.97;;;4.80;99.90;;;;;;5116657;28;20433;-88
2021/01/13 13:33:28;;;;;;;5.57;3.43;;;4.80;99.90;;;;;;5091713;28;20479;-88
2021/01/13 13:36:27;;;;;;;4.10;2.73;;;4.80;99.90;;;;;;5119183;27;20424;-89
2021/01/13 13:38:56;;;;;;;3.23;2.90;;;4.90;99.90;;;;;;5101602;28;20527;-92
2021/01/13 13:41:30;;;;;;;7.60;3.17;;;4.80;99.90;;;;;;5100766;28;22043;-89
2021/01/13 13:43:56;;;;;;;4.13;3.73;;;4.90;99.90;;;;;;5099144;28;20468;-88
2021/01/13 13:46:22;;;;;;;8.23;3.70;;;4.90;99.90;;;;;;5082659;28;20428;-88
2021/01/13 13:49:12;;;;;;;6.30;3.80;;;4.80;99.90;;;;;;5085210;28;20178;-89
2021/01/13 13:51:44;;;;;;;6.53;3.87;;;4.80;99.90;;;;;;5065607;28;20190;-88
2021/01/13 13:54:10;;;;;;;9.30;4.63;;;4.90;99.90;;;;;;5065782;28;20447;-86
2021/01/13 13:56:36;;;;;;;4.37;3.40;;;5.00;99.90;;;;;;5102914;28;20998;-87
2021/01/13 13:59:02;;;;;;;6.43;3.23;;;5.00;99.90;;;;;;5083591;28;20921;-87
2021/01/13 14:01:31;;;;;;;6.90;3.73;;;5.00;99.90;;;;;;5077039;28;20234;-86
2021/01/13 14:04:08;;;;;;;7.93;4.00;;;5.00;99.90;;;;;;5081117;28;20222;-86
2021/01/13 14:06:34;;;;;;;12.87;4.93;;;5.00;99.90;;;;;;5099865;28;20491;-85
2021/01/13 14:09:00;;;;;;;7.07;4.47;;;5.00;99.90;;;;;;5098682;28;20526;-86
2021/01/13 14:11:36;;;;;;;9.40;5.20;;;5.00;99.90;;;;;;5063398;28;20185;-87
2021/01/13 14:14:05;;;;;;;6.27;4.93;;;5.10;99.90;;;;;;5076734;28;20303;-88
2021/01/13 14:16:34;;;;;;;6.07;4.07;;;5.20;99.90;;;;;;5099960;28;20428;-85
2021/01/13 14:19:08;;;;;;;5.33;3.83;;;5.20;99.90;;;;;;5097292;28;20922;-87
2021/01/13 14:21:39;;;;;;;5.03;3.90;;;5.00;99.90;;;;;;5112258;27;20522;-86
2021/01/13 14:24:11;;;;;;;8.60;4.50;;;4.90;99.90;;;;;;5096096;28;20514;-87
2021/01/13 14:26:37;;;;;;;5.00;3.63;;;4.80;99.90;;;;;;5093162;28;20443;-85
2021/01/13 14:29:11;;;;;;;6.30;3.80;;;4.70;99.90;;;;;;5095155;28;20478;-85
2021/01/13 14:31:38;;;;;;;7.37;4.30;;;4.70;99.90;;;;;;5082266;28;20440;-89
2021/01/13 14:34:13;;;;;;;7.20;4.30;;;4.70;99.90;;;;;;5094836;28;20447;-91
2021/01/13 14:36:48;;;;;;;4.93;3.90;;;4.70;99.90;;;;;;5082709;28;20948;-88
2021/01/13 14:39:23;;;;;;;10.70;3.80;;;4.70;99.90;;;;;;5080613;28;20447;-86
2021/01/13 14:41:52;;;;;;;5.73;3.93;;;4.70;99.90;;;;;;5082941;28;20447;-89
2021/01/13 14:44:20;;;;;;;9.03;4.00;;;4.70;99.90;;;;;;5080953;28;20502;-87
2021/01/13 14:46:58;;;;;;;5.57;3.90;;;4.80;99.90;;;;;;5099690;28;20437;-89
2021/01/13 14:49:26;;;;;;;8.60;4.30;;;4.90;99.90;;;;;;5078975;28;20513;-89
2021/01/13 14:51:54;;;;;;;6.17;4.00;;;4.90;99.90;;;;;;5062430;28;20539;-88
2021/01/13 14:54:55;;;;;;;6.90;3.93;;;5.00;99.90;;;;;;5068321;28;20548;-87
2021/01/13 14:57:23;;;;;;;4.43;3.10;;;5.00;99.90;;;;;;5066702;28;20512;-88
2021/01/13 14:59:49;;;;;;;3.80;3.40;;;4.90;99.90;;;;;;5083313;28;20799;-85
2021/01/13 15:02:19;;;;;;;5.30;3.80;;;5.00;99.90;;;;;;5090358;28;20552;-85
2021/01/13 15:04:45;;;;;;;1.83;1.73;;;5.00;99.90;;;;;;5088403;28;20266;-84
2021/01/13 15:07:11;;;;;;;7.23;3.67;;;5.10;99.90;;;;;;5089518;28;20537;-86
2021/01/13 15:09:45;;;;;;;7.67;3.50;;;5.10;99.90;;;;;;5046533;28;20828;-84
2021/01/13 15:12:14;;;;;;;7.87;3.40;;;5.10;99.90;;;;;;5068130;28;20449;-85
2021/01/13 15:14:42;;;;;;;4.90;3.63;;;5.10;99.90;;;;;;5086531;28;21225;-83
2021/01/13 15:17:08;;;;;;;5.03;3.30;;;5.10;99.90;;;;;;5068337;28;20432;-85
2021/01/13 15:19:34;;;;;;;6.37;3.90;;;5.10;99.90;;;;;;5069254;28;20444;-85
2021/01/13 15:22:00;;;;;;;6.97;3.73;;;5.10;99.90;;;;;;5077425;28;20201;-88
2021/01/13 15:24:35;;;;;;;6.40;3.27;;;5.10;99.90;;;;;;5085566;28;20500;-86